createdAt,value
2018-05-01T00:01:11.518Z,11.80
2018-05-01T00:03:40.416Z,11.70
2018-05-01T00:06:09.015Z,11.70
2018-05-01T00:08:38.236Z,11.60
2018-05-01T00:11:07.160Z,11.60
2018-05-01T00:13:37.672Z,11.50
2018-05-01T00:16:06.041Z,11.50
2018-05-01T00:18:35.597Z,11.50
2018-05-01T00:21:04.197Z,11.50
2018-05-01T00:23:32.652Z,11.50
2018-05-01T00:26:01.873Z,11.50
2018-05-01T00:28:31.233Z,11.50
2018-05-01T00:31:01.669Z,11.50
2018-05-01T00:33:30.040Z,11.50
2018-05-01T00:35:59.201Z,11.50
2018-05-01T00:38:28.585Z,11.50
2018-05-01T00:40:58.013Z,11.50
2018-05-01T00:43:26.449Z,11.50
2018-05-01T00:45:55.699Z,11.50
2018-05-01T00:48:25.268Z,11.40
2018-05-01T00:50:54.460Z,11.40
2018-05-01T00:53:23.245Z,11.40
2018-05-01T00:55:52.795Z,11.40
2018-05-01T00:58:21.537Z,11.40
2018-05-01T01:00:50.479Z,11.40
2018-05-01T01:03:19.876Z,11.40
2018-05-01T01:05:49.958Z,11.40
2018-05-01T01:08:18.348Z,11.30
2018-05-01T01:10:48.065Z,11.40
2018-05-01T01:13:17.670Z,11.40
2018-05-01T01:15:46.529Z,11.30
2018-05-01T01:18:14.901Z,11.30
2018-05-01T01:20:43.287Z,11.30
2018-05-01T01:23:11.691Z,11.30
2018-05-01T01:25:40.060Z,11.30
2018-05-01T01:28:08.457Z,11.40
2018-05-01T01:30:36.956Z,11.40
2018-05-01T01:33:06.308Z,11.40
2018-05-01T01:35:33.908Z,11.40
2018-05-01T01:38:02.999Z,11.40
2018-05-01T01:40:31.369Z,11.40
2018-05-01T01:42:58.939Z,11.40
2018-05-01T01:45:26.571Z,11.40
2018-05-01T01:47:54.144Z,11.30
2018-05-01T01:50:21.880Z,11.30
2018-05-01T01:52:49.461Z,11.30
2018-05-01T01:55:17.032Z,11.30
2018-05-01T01:57:44.640Z,11.30
2018-05-01T02:00:12.868Z,11.30
2018-05-01T02:02:40.468Z,11.30
2018-05-01T02:05:08.808Z,11.30
2018-05-01T02:07:36.740Z,11.30
2018-05-01T02:10:04.317Z,11.30
2018-05-01T02:12:31.893Z,11.30
2018-05-01T02:14:59.496Z,11.30
2018-05-01T02:17:27.068Z,11.20
2018-05-01T02:19:54.664Z,11.20
2018-05-01T02:22:22.236Z,11.20
2018-05-01T02:24:49.841Z,11.20
2018-05-01T02:27:17.420Z,11.20
2018-05-01T02:29:44.998Z,11.20
2018-05-01T02:32:12.592Z,11.20
2018-05-01T02:34:41.030Z,11.20
2018-05-01T02:37:08.632Z,11.20
2018-05-01T02:39:36.208Z,11.20
2018-05-01T02:42:04.832Z,11.20
2018-05-01T02:44:32.411Z,11.20
2018-05-01T02:46:59.988Z,11.20
2018-05-01T02:49:27.620Z,11.20
2018-05-01T02:51:55.199Z,11.10
2018-05-01T02:54:22.797Z,11.10
2018-05-01T02:56:50.384Z,11.00
2018-05-01T02:59:18.349Z,11.00
2018-05-01T03:01:45.956Z,11.00
2018-05-01T03:04:13.536Z,10.90
2018-05-01T03:06:41.902Z,11.00
2018-05-01T03:09:10.254Z,11.00
2018-05-01T03:11:37.858Z,11.00
2018-05-01T03:14:06.236Z,11.10
2018-05-01T03:16:34.750Z,11.10
2018-05-01T03:19:02.329Z,11.10
2018-05-01T03:21:29.904Z,11.00
2018-05-01T03:23:57.504Z,11.00
2018-05-01T03:26:25.082Z,11.00
2018-05-01T03:28:52.688Z,11.00
2018-05-01T03:31:20.261Z,11.10
2018-05-01T03:33:48.736Z,11.10
2018-05-01T03:36:17.096Z,11.10
2018-05-01T03:38:44.675Z,11.10
2018-05-01T03:41:13.040Z,11.10
2018-05-01T03:43:40.612Z,11.10
2018-05-01T03:46:08.988Z,11.10
2018-05-01T03:48:37.341Z,11.20
2018-05-01T03:51:04.949Z,11.10
2018-05-01T03:53:32.536Z,11.20
2018-05-01T03:56:00.152Z,11.20
2018-05-01T03:58:28.505Z,11.20
2018-05-01T04:00:56.081Z,11.20
2018-05-01T04:03:23.679Z,11.10
2018-05-01T04:05:51.262Z,11.10
2018-05-01T04:08:18.888Z,11.00
2018-05-01T04:10:46.467Z,10.90
2018-05-01T04:13:14.105Z,10.90
2018-05-01T04:15:41.661Z,10.90
2018-05-01T04:18:10.028Z,10.90
2018-05-01T04:20:38.413Z,11.00
2018-05-01T04:23:06.756Z,11.10
2018-05-01T04:25:34.328Z,11.10
2018-05-01T04:28:01.933Z,11.10
2018-05-01T04:30:29.516Z,11.20
2018-05-01T04:32:57.109Z,11.20
2018-05-01T04:35:24.685Z,11.20
2018-05-01T04:37:53.029Z,11.30
2018-05-01T04:40:20.648Z,11.30
2018-05-01T04:42:48.229Z,11.30
2018-05-01T04:45:15.825Z,11.30
2018-05-01T04:47:43.404Z,11.40
2018-05-01T04:50:11.749Z,11.40
2018-05-01T04:52:39.350Z,11.40
2018-05-01T04:55:06.949Z,11.40
2018-05-01T04:57:34.551Z,11.50
2018-05-01T05:00:02.901Z,11.60
2018-05-01T05:02:30.515Z,11.50
2018-05-01T05:04:58.088Z,11.60
2018-05-01T05:07:25.665Z,11.60
2018-05-01T05:09:53.266Z,11.50
2018-05-01T05:12:20.841Z,11.60
2018-05-01T05:14:49.205Z,11.60
2018-05-01T05:17:16.784Z,11.60
2018-05-01T05:19:45.292Z,11.50
2018-05-01T05:22:12.864Z,11.50
2018-05-01T05:24:40.440Z,11.50
2018-05-01T05:27:08.048Z,11.50
2018-05-01T05:29:35.636Z,11.50
2018-05-01T05:32:03.233Z,11.50
2018-05-01T05:34:30.808Z,11.50
2018-05-01T05:36:59.156Z,11.60
2018-05-01T05:39:26.757Z,11.60
2018-05-01T05:41:55.101Z,11.70
2018-05-01T05:44:22.701Z,11.70
2018-05-01T05:46:51.041Z,11.80
2018-05-01T05:49:18.654Z,11.80
2018-05-01T05:51:46.428Z,11.90
2018-05-01T05:54:14.009Z,11.90
2018-05-01T05:56:41.612Z,12.00
2018-05-01T05:59:09.964Z,12.10
2018-05-01T06:01:37.569Z,12.10
2018-05-01T06:04:05.152Z,12.10
2018-05-01T06:06:32.770Z,12.20
2018-05-01T06:09:01.118Z,12.30
2018-05-01T06:11:28.711Z,12.20
2018-05-01T06:13:57.081Z,12.30
2018-05-01T06:16:25.425Z,12.40
2018-05-01T06:18:53.078Z,12.40
2018-05-01T06:21:20.652Z,12.40
2018-05-01T06:23:48.295Z,12.50
2018-05-01T06:26:15.892Z,12.50
2018-05-01T06:28:43.470Z,12.60
2018-05-01T06:31:12.231Z,12.60
2018-05-01T06:33:39.785Z,12.60
2018-05-01T06:36:07.365Z,12.70
2018-05-01T06:38:35.744Z,12.70
2018-05-01T06:41:04.096Z,12.70
2018-05-01T06:43:32.035Z,12.70
2018-05-01T06:45:59.608Z,12.70
2018-05-01T06:48:27.192Z,12.60
2018-05-01T06:50:56.364Z,12.60
2018-05-01T06:53:23.944Z,12.50
2018-05-01T06:55:51.770Z,12.60
2018-05-01T06:58:19.357Z,12.50
2018-05-01T07:00:46.941Z,12.50
2018-05-01T07:03:14.557Z,12.50
2018-05-01T07:05:42.133Z,12.50
2018-05-01T07:08:09.833Z,12.50
2018-05-01T07:10:38.189Z,12.50
2018-05-01T07:13:05.768Z,12.50
2018-05-01T07:15:34.141Z,12.50
2018-05-01T07:18:01.724Z,12.50
2018-05-01T07:20:30.372Z,12.70
2018-05-01T07:22:57.969Z,12.70
2018-05-01T07:25:25.551Z,12.70
2018-05-01T07:27:53.150Z,12.80
2018-05-01T07:30:20.746Z,12.90
2018-05-01T07:32:49.612Z,13.20
2018-05-01T07:35:17.979Z,13.40
2018-05-01T07:37:45.571Z,13.30
2018-05-01T07:40:13.955Z,13.60
2018-05-01T07:42:41.542Z,13.60
2018-05-01T07:45:09.254Z,13.80
2018-05-01T07:47:37.610Z,14.20
2018-05-01T07:50:05.194Z,14.20
2018-05-01T07:52:33.564Z,14.10
2018-05-01T07:55:01.152Z,14.10
2018-05-01T07:57:29.048Z,14.10
2018-05-01T07:59:56.652Z,14.20
2018-05-01T08:02:24.237Z,14.30
2018-05-01T08:04:52.617Z,14.50
2018-05-01T08:07:20.211Z,14.50
2018-05-01T08:09:48.133Z,14.60
2018-05-01T08:12:16.484Z,14.90
2018-05-01T08:14:44.120Z,14.90
2018-05-01T08:17:11.721Z,15.20
2018-05-01T08:19:40.075Z,15.30
2018-05-01T08:22:07.701Z,15.30
2018-05-01T08:24:35.293Z,15.30
2018-05-01T08:27:02.876Z,15.50
2018-05-01T08:29:31.248Z,16.50
2018-05-01T08:31:59.608Z,17.30
2018-05-01T08:34:27.362Z,17.30
2018-05-01T08:36:54.999Z,18.10
2018-05-01T08:39:22.637Z,18.40
2018-05-01T08:41:51.021Z,19.40
2018-05-01T08:44:18.600Z,19.30
2018-05-01T08:46:46.895Z,19.50
2018-05-01T08:49:20.468Z,19.60
2018-05-01T08:51:50.422Z,19.70
2018-05-01T08:54:19.037Z,19.20
2018-05-01T08:56:48.325Z,18.60
2018-05-01T08:59:16.410Z,18.60
2018-05-01T09:01:44.825Z,17.90
2018-05-01T09:04:12.836Z,17.90
2018-05-01T09:06:41.077Z,17.40
2018-05-01T09:09:08.749Z,17.00
2018-05-01T09:11:37.289Z,16.80
2018-05-01T09:14:05.093Z,16.60
2018-05-01T09:16:32.762Z,16.30
2018-05-01T09:19:00.527Z,16.10
2018-05-01T09:21:28.994Z,15.70
2018-05-01T09:23:56.616Z,15.70
2018-05-01T09:26:24.259Z,15.50
2018-05-01T09:28:52.702Z,15.10
2018-05-01T09:31:20.638Z,15.10
2018-05-01T09:33:48.257Z,15.00
2018-05-01T09:36:16.276Z,14.90
2018-05-01T09:38:43.897Z,14.80
2018-05-01T09:41:11.531Z,14.80
2018-05-01T09:43:39.223Z,14.80
2018-05-01T09:46:06.963Z,14.90
2018-05-01T09:48:35.225Z,14.90
2018-05-01T09:51:02.841Z,14.90
2018-05-01T09:53:31.345Z,14.80
2018-05-01T09:55:59.841Z,14.80
2018-05-01T09:58:28.431Z,14.90
2018-05-01T10:00:56.913Z,15.00
2018-05-01T10:03:26.213Z,15.10
2018-05-01T10:05:54.724Z,15.10
2018-05-01T10:08:23.768Z,15.10
2018-05-01T10:10:52.136Z,15.10
2018-05-01T10:13:20.529Z,15.00
2018-05-01T10:15:49.622Z,14.90
2018-05-01T10:18:18.329Z,14.80
2018-05-01T10:20:47.365Z,14.70
2018-05-01T10:23:16.909Z,14.70
2018-05-01T10:25:45.841Z,14.70
2018-05-01T10:28:15.089Z,14.70
2018-05-01T10:30:43.504Z,14.70
2018-05-01T10:33:12.970Z,14.80
2018-05-01T10:35:41.441Z,14.80
2018-05-01T10:38:10.876Z,14.80
2018-05-01T10:40:40.382Z,14.80
2018-05-01T10:43:08.992Z,14.70
2018-05-01T10:45:37.477Z,14.50
2018-05-01T10:48:06.044Z,14.40
2018-05-01T10:50:35.472Z,14.40
2018-05-01T10:53:03.861Z,14.40
2018-05-01T10:55:34.062Z,14.30
2018-05-01T10:58:02.847Z,14.30
2018-05-01T11:00:31.259Z,14.30
2018-05-01T11:03:00.394Z,14.20
2018-05-01T11:05:28.790Z,14.20
2018-05-01T11:07:57.156Z,14.20
2018-05-01T11:10:25.548Z,14.20
2018-05-01T11:12:54.045Z,14.30
2018-05-01T11:15:22.666Z,14.30
2018-05-01T11:17:51.882Z,14.40
2018-05-01T11:20:20.478Z,14.50
2018-05-01T11:22:50.266Z,14.50
2018-05-01T11:25:20.051Z,14.50
2018-05-01T11:31:18.096Z,14.60
2018-05-01T11:37:21.170Z,15.20
2018-05-01T11:55:44.221Z,24.30
2018-05-01T11:58:19.282Z,24.90
2018-05-01T12:01:12.690Z,25.40
2018-05-01T12:07:12.909Z,25.80
2018-05-01T12:27:55.527Z,26.10
2018-05-01T12:30:40.531Z,26.60
2018-05-01T12:33:27.700Z,26.40
2018-05-01T12:35:57.846Z,25.90
2018-05-01T12:38:26.993Z,25.90
2018-05-01T12:40:56.127Z,26.10
2018-05-01T12:43:24.517Z,26.10
2018-05-01T12:45:52.889Z,25.90
2018-05-01T12:48:22.021Z,26.10
2018-05-01T13:09:31.375Z,23.80
2018-05-01T13:15:23.395Z,23.70
2018-05-01T13:17:54.215Z,24.70
2018-05-01T13:20:22.896Z,24.60
2018-05-01T13:22:51.559Z,25.10
2018-05-01T13:25:20.712Z,24.90
2018-05-01T13:27:49.100Z,24.90
2018-05-01T13:30:17.536Z,24.90
2018-05-01T13:32:46.114Z,24.50
2018-05-01T13:35:14.838Z,24.40
2018-05-01T13:37:43.212Z,24.10
2018-05-01T13:40:11.730Z,23.80
2018-05-01T13:42:40.897Z,23.30
2018-05-01T13:45:09.342Z,23.30
2018-05-01T13:47:37.688Z,23.00
2018-05-01T13:50:06.831Z,22.30
2018-05-01T13:52:35.327Z,22.30
2018-05-01T13:55:03.693Z,22.00
2018-05-01T13:57:32.137Z,22.30
2018-05-01T14:00:01.673Z,22.50
2018-05-01T14:02:30.040Z,23.10
2018-05-01T14:04:58.433Z,23.70
2018-05-01T14:07:26.801Z,24.50
2018-05-01T14:09:55.588Z,25.00
2018-05-01T14:12:23.964Z,25.20
2018-05-01T14:14:52.356Z,25.10
2018-05-01T14:17:20.746Z,24.80
2018-05-01T14:19:49.118Z,24.30
2018-05-01T14:22:17.580Z,23.90
2018-05-01T14:24:45.952Z,23.30
2018-05-01T14:27:14.544Z,23.00
2018-05-01T14:29:42.909Z,22.90
2018-05-01T14:32:11.276Z,22.40
2018-05-01T14:34:39.671Z,22.10
2018-05-01T14:37:08.035Z,21.70
2018-05-01T14:39:37.008Z,21.70
2018-05-01T14:42:06.199Z,21.60
2018-05-01T14:44:35.650Z,21.50
2018-05-01T14:47:04.029Z,21.40
2018-05-01T14:49:32.402Z,21.20
2018-05-01T14:52:00.792Z,21.10
2018-05-01T14:54:29.156Z,21.20
2018-05-01T14:56:57.550Z,21.20
2018-05-01T14:59:25.921Z,21.40
2018-05-01T15:01:54.504Z,21.40
2018-05-01T15:04:22.880Z,21.20
2018-05-01T15:06:51.248Z,21.00
2018-05-01T15:09:19.639Z,21.00
2018-05-01T15:11:48.029Z,21.00
2018-05-01T15:14:16.429Z,21.00
2018-05-01T15:16:44.913Z,21.00
2018-05-01T15:19:13.739Z,21.10
2018-05-01T15:21:42.060Z,21.10
2018-05-01T15:24:10.432Z,21.00
2018-05-01T15:26:38.821Z,20.90
2018-05-01T15:29:07.209Z,20.80
2018-05-01T15:31:35.645Z,20.50
2018-05-01T15:34:04.069Z,20.00
2018-05-01T15:36:32.832Z,19.70
2018-05-01T15:39:03.093Z,19.40
2018-05-01T15:41:32.244Z,19.10
2018-05-01T15:44:00.665Z,19.00
2018-05-01T15:46:29.045Z,19.00
2018-05-01T15:48:57.446Z,18.90
2018-05-01T15:51:26.585Z,18.80
2018-05-01T15:53:54.993Z,18.70
2018-05-01T15:56:24.157Z,18.70
2018-05-01T15:58:52.741Z,18.70
2018-05-01T16:01:21.224Z,18.50
2018-05-01T16:03:49.608Z,18.50
2018-05-01T16:06:18.006Z,18.40
2018-05-01T16:08:46.384Z,18.30
2018-05-01T16:11:14.782Z,18.20
2018-05-01T16:13:43.994Z,18.10
2018-05-01T16:16:12.341Z,18.10
2018-05-01T16:18:40.712Z,18.10
2018-05-01T16:21:09.089Z,18.10
2018-05-01T16:23:37.487Z,18.00
2018-05-01T16:26:05.864Z,18.00
2018-05-01T16:28:34.366Z,18.00
2018-05-01T16:31:03.513Z,17.80
2018-05-01T16:33:32.390Z,17.80
2018-05-01T16:36:00.853Z,17.80
2018-05-01T16:38:29.668Z,17.70
2018-05-01T16:40:59.704Z,17.60
2018-05-01T16:43:28.160Z,17.50
2018-05-01T16:45:56.697Z,17.50
2018-05-01T16:48:26.549Z,17.30
2018-05-01T16:50:55.200Z,17.30
2018-05-01T16:53:24.812Z,17.10
2018-05-01T16:56:22.112Z,17.10
2018-05-01T16:59:21.366Z,17.00
2018-05-01T17:02:19.657Z,16.90
2018-05-01T17:04:57.669Z,16.80
2018-05-01T17:10:36.282Z,16.80
2018-05-01T17:13:09.059Z,16.70
2018-05-01T17:16:03.777Z,16.70
2018-05-01T17:18:48.815Z,16.60
2018-05-01T17:21:29.384Z,16.60
2018-05-01T17:24:00.609Z,16.50
2018-05-01T17:26:31.729Z,16.40
2018-05-01T17:29:03.656Z,16.30
2018-05-01T17:31:33.435Z,16.30
2018-05-01T17:34:06.394Z,16.30
2018-05-01T17:36:35.992Z,16.00
2018-05-01T17:39:04.421Z,16.00
2018-05-01T17:41:33.593Z,15.80
2018-05-01T17:44:01.972Z,15.80
2018-05-01T17:46:30.738Z,15.70
2018-05-01T17:49:01.907Z,15.40
2018-05-01T17:51:31.746Z,15.30
2018-05-01T17:54:00.681Z,15.30
2018-05-01T17:56:29.264Z,15.30
2018-05-01T17:58:57.687Z,15.20
2018-05-01T18:01:27.136Z,15.10
2018-05-01T18:03:56.110Z,15.10
2018-05-01T18:06:24.827Z,15.10
2018-05-01T18:08:53.715Z,15.00
2018-05-01T18:11:22.299Z,15.00
2018-05-01T18:13:50.848Z,14.90
2018-05-01T18:16:19.621Z,14.80
2018-05-01T18:18:48.762Z,14.50
2018-05-01T18:21:17.198Z,14.50
2018-05-01T18:23:45.749Z,14.40
2018-05-01T18:26:14.616Z,14.30
2018-05-01T18:28:43.213Z,14.20
2018-05-01T18:31:11.853Z,14.10
2018-05-01T18:33:41.244Z,14.10
2018-05-01T18:36:10.461Z,14.00
2018-05-01T18:38:39.475Z,13.90
2018-05-01T18:41:09.189Z,13.90
2018-05-01T18:43:37.834Z,13.90
2018-05-01T18:46:06.216Z,13.80
2018-05-01T18:48:34.643Z,13.80
2018-05-01T18:51:03.516Z,13.80
2018-05-01T18:53:31.965Z,13.80
2018-05-01T18:56:01.382Z,13.80
2018-05-01T18:58:29.845Z,13.80
2018-05-01T19:00:58.842Z,13.80
2018-05-01T19:03:28.076Z,13.80
2018-05-01T19:05:56.764Z,13.80
2018-05-01T19:08:25.728Z,13.80
2018-05-01T19:10:54.423Z,13.80
2018-05-01T19:13:23.064Z,13.80
2018-05-01T19:15:52.200Z,13.70
2018-05-01T19:18:21.014Z,13.60
2018-05-01T19:20:50.312Z,13.60
2018-05-01T19:23:20.323Z,13.50
2018-05-01T19:25:49.008Z,13.50
2018-05-01T19:28:17.622Z,13.50
2018-05-01T19:30:47.215Z,13.50
2018-05-01T19:33:16.394Z,13.50
2018-05-01T19:35:45.242Z,13.50
2018-05-01T19:38:13.677Z,13.50
2018-05-01T19:40:42.855Z,13.50
2018-05-01T19:43:15.248Z,13.50
2018-05-01T19:45:48.486Z,13.50
2018-05-01T19:48:20.532Z,13.50
2018-05-01T19:50:50.977Z,13.40
2018-05-01T19:53:20.655Z,13.40
2018-05-01T19:55:50.132Z,13.40
2018-05-01T19:58:18.613Z,13.40
2018-05-01T20:01:10.560Z,13.40
2018-05-01T20:03:59.332Z,13.40
2018-05-01T20:06:55.803Z,13.30
2018-05-01T20:18:50.430Z,13.20
2018-05-01T20:21:46.519Z,13.10
2018-05-01T20:24:44.878Z,13.00
2018-05-01T20:27:41.241Z,13.00
2018-05-01T20:30:32.746Z,13.00
2018-05-01T20:33:23.419Z,13.00
2018-05-01T20:36:15.855Z,12.90
2018-05-01T20:39:02.565Z,12.90
2018-05-01T20:41:45.439Z,12.80
2018-05-01T20:44:28.841Z,12.80
2018-05-01T20:47:10.726Z,12.80
2018-05-01T20:49:51.053Z,12.80
2018-05-01T20:52:31.052Z,12.70
2018-05-01T20:55:04.239Z,12.70
2018-05-01T20:57:33.643Z,12.70
2018-05-01T21:00:02.860Z,12.70
2018-05-01T21:02:33.789Z,12.70
2018-05-01T21:05:03.797Z,12.70
2018-05-01T21:07:33.029Z,12.70
2018-05-01T21:10:01.430Z,12.70
2018-05-01T21:12:30.580Z,12.70
2018-05-01T21:14:59.925Z,12.70
2018-05-01T21:17:29.077Z,12.60
2018-05-01T21:19:57.472Z,12.60
2018-05-01T21:22:25.854Z,12.60
2018-05-01T21:24:54.403Z,12.60
2018-05-01T21:27:22.784Z,12.60
2018-05-01T21:29:51.167Z,12.50
2018-05-01T21:32:19.701Z,12.50
2018-05-01T21:34:48.905Z,12.40
2018-05-01T21:37:18.093Z,12.40
2018-05-01T21:39:47.246Z,12.40
2018-05-01T21:42:15.821Z,12.40
2018-05-01T21:44:44.188Z,12.40
2018-05-01T21:47:12.575Z,12.30
2018-05-01T21:49:41.052Z,12.40
2018-05-01T21:52:09.489Z,12.40
2018-05-01T21:54:38.658Z,12.30
2018-05-01T21:57:07.035Z,12.30
2018-05-01T21:59:35.793Z,12.30
2018-05-01T22:02:04.163Z,12.30
2018-05-01T22:04:32.533Z,12.30
2018-05-01T22:07:00.929Z,12.30
2018-05-01T22:09:29.308Z,12.30
2018-05-01T22:11:57.716Z,12.20
2018-05-01T22:14:26.094Z,12.20
2018-05-01T22:16:54.958Z,12.20
2018-05-01T22:19:23.337Z,12.20
2018-05-01T22:21:51.708Z,12.20
2018-05-01T22:24:20.097Z,12.20
2018-05-01T22:26:48.471Z,12.20
2018-05-01T22:29:16.873Z,12.20
2018-05-01T22:31:45.249Z,12.10
2018-05-01T22:34:13.914Z,12.10
2018-05-01T22:36:42.289Z,12.20
2018-05-01T22:39:10.673Z,12.20
2018-05-01T22:41:39.076Z,12.10
2018-05-01T22:44:07.453Z,12.10
2018-05-01T22:46:36.684Z,12.10
2018-05-01T22:49:05.822Z,12.00
2018-05-01T22:51:34.501Z,12.00
2018-05-01T22:54:02.884Z,12.00
2018-05-01T22:56:31.263Z,12.10
2018-05-01T22:58:59.668Z,12.00
2018-05-01T23:01:28.854Z,12.10
2018-05-01T23:03:57.298Z,12.10
2018-05-01T23:06:25.678Z,12.00
2018-05-01T23:08:54.100Z,12.00
2018-05-01T23:11:22.586Z,12.00
2018-05-01T23:13:50.956Z,11.90
2018-05-01T23:16:19.354Z,12.00
2018-05-01T23:18:47.732Z,12.00
2018-05-01T23:21:16.129Z,12.00
2018-05-01T23:23:45.324Z,11.90
2018-05-01T23:26:14.985Z,11.90
2018-05-01T23:28:44.277Z,11.90
2018-05-01T23:31:13.589Z,11.90
2018-05-01T23:33:42.114Z,11.80
2018-05-01T23:36:11.270Z,11.70
2018-05-01T23:38:39.685Z,11.70
2018-05-01T23:41:08.829Z,11.60
2018-05-01T23:43:52.305Z,11.60
2018-05-01T23:46:22.980Z,11.60
2018-05-01T23:48:52.019Z,11.50
2018-05-01T23:51:21.813Z,11.50
2018-05-01T23:53:53.153Z,11.50
2018-05-01T23:56:34.982Z,11.50
2018-05-01T23:59:07.605Z,11.50
